Terminal Aerodrome Forecast
Issued by NWS

Home | Current Version | Previous Version | Text Only | Print | Product List | Glossary On
Versions: 1 2 3 4 5 6 7 8 9 10 11 12 13 14 15 16 17 18 19 20 21 22 23
000
FTUS44 KBMX 161900 AAA
TAFANB
TAF AMD
KANB 161909Z 1619/1718 35006KT P6SM BKN040
     FM162000 33009KT P6SM VCSH SCT040 BKN100
     FM170000 33005KT P6SM SCT100 SCT250
     FM170900 33004KT P6SM SCT015 SCT040
      TEMPO 1709/1713 5SM BR
     FM171400 35005KT P6SM SCT250=

USA.gov is the U.S. government's official web portal to all federal, state and local government web resources and services.